sensor_id;sensor_type;location;lat;lon;timestamp;P1;durP1;ratioP1;P2;durP2;ratioP2
12519;SDS011;6325;49.540;8.364;2023-11-21T00:02:06;1.20;;;1.10;;
12519;SDS011;6325;49.540;8.364;2023-11-21T00:04:34;1.25;;;0.93;;
12519;SDS011;6325;49.540;8.364;2023-11-21T00:07:02;1.63;;;1.13;;
12519;SDS011;6325;49.540;8.364;2023-11-21T00:09:31;1.10;;;1.00;;
12519;SDS011;6325;49.540;8.364;2023-11-21T00:11:57;1.40;;;1.10;;
12519;SDS011;6325;49.540;8.364;2023-11-21T00:14:25;1.38;;;1.05;;
12519;SDS011;6325;49.540;8.364;2023-11-21T00:16:52;2.38;;;1.25;;
12519;SDS011;6325;49.540;8.364;2023-11-21T00:19:19;1.30;;;1.20;;
12519;SDS011;6325;49.540;8.364;2023-11-21T00:21:47;1.20;;;1.10;;
12519;SDS011;6325;49.540;8.364;2023-11-21T00:24:14;1.30;;;1.20;;
12519;SDS011;6325;49.540;8.364;2023-11-21T00:26:40;1.73;;;1.35;;
12519;SDS011;6325;49.540;8.364;2023-11-21T00:29:07;1.85;;;1.20;;
12519;SDS011;6325;49.540;8.364;2023-11-21T00:31:35;1.27;;;1.17;;
12519;SDS011;6325;49.540;8.364;2023-11-21T00:34:02;1.42;;;1.20;;
12519;SDS011;6325;49.540;8.364;2023-11-21T00:36:30;1.27;;;1.10;;
12519;SDS011;6325;49.540;8.364;2023-11-21T00:38:58;1.30;;;1.17;;
12519;SDS011;6325;49.540;8.364;2023-11-21T00:41:24;1.35;;;1.10;;
12519;SDS011;6325;49.540;8.364;2023-11-21T00:43:52;1.10;;;1.10;;
12519;SDS011;6325;49.540;8.364;2023-11-21T00:46:20;1.50;;;1.20;;
12519;SDS011;6325;49.540;8.364;2023-11-21T00:48:46;1.83;;;1.30;;
12519;SDS011;6325;49.540;8.364;2023-11-21T00:51:13;1.20;;;1.10;;
12519;SDS011;6325;49.540;8.364;2023-11-21T00:53:40;1.63;;;1.25;;
12519;SDS011;6325;49.540;8.364;2023-11-21T00:56:08;1.13;;;1.03;;
12519;SDS011;6325;49.540;8.364;2023-11-21T00:58:35;1.52;;;1.17;;
12519;SDS011;6325;49.540;8.364;2023-11-21T01:01:01;1.63;;;1.08;;
12519;SDS011;6325;49.540;8.364;2023-11-21T01:03:28;1.30;;;1.20;;
12519;SDS011;6325;49.540;8.364;2023-11-21T01:05:55;1.33;;;1.13;;
12519;SDS011;6325;49.540;8.364;2023-11-21T01:08:22;1.10;;;1.00;;
12519;SDS011;6325;49.540;8.364;2023-11-21T01:10:49;1.23;;;1.13;;
12519;SDS011;6325;49.540;8.364;2023-11-21T01:13:17;1.15;;;0.95;;
12519;SDS011;6325;49.540;8.364;2023-11-21T01:15:44;1.47;;;1.20;;
12519;SDS011;6325;49.540;8.364;2023-11-21T01:18:11;1.67;;;1.20;;
12519;SDS011;6325;49.540;8.364;2023-11-21T01:20:38;1.30;;;1.20;;
12519;SDS011;6325;49.540;8.364;2023-11-21T01:23:05;1.30;;;1.20;;
12519;SDS011;6325;49.540;8.364;2023-11-21T01:25:31;1.90;;;1.27;;
12519;SDS011;6325;49.540;8.364;2023-11-21T01:27:58;1.00;;;1.00;;
12519;SDS011;6325;49.540;8.364;2023-11-21T01:30:26;1.20;;;1.10;;
12519;SDS011;6325;49.540;8.364;2023-11-21T01:32:53;1.55;;;1.10;;
12519;SDS011;6325;49.540;8.364;2023-11-21T01:35:20;1.00;;;1.00;;
12519;SDS011;6325;49.540;8.364;2023-11-21T01:37:47;1.30;;;1.20;;
12519;SDS011;6325;49.540;8.364;2023-11-21T01:40:14;1.10;;;1.00;;
12519;SDS011;6325;49.540;8.364;2023-11-21T01:42:41;1.30;;;1.10;;
12519;SDS011;6325;49.540;8.364;2023-11-21T01:45:10;1.25;;;1.13;;
12519;SDS011;6325;49.540;8.364;2023-11-21T01:47:39;1.73;;;1.23;;
12519;SDS011;6325;49.540;8.364;2023-11-21T01:50:07;1.15;;;1.08;;
12519;SDS011;6325;49.540;8.364;2023-11-21T01:52:37;1.83;;;1.20;;
12519;SDS011;6325;49.540;8.364;2023-11-21T01:55:06;1.80;;;1.42;;
12519;SDS011;6325;49.540;8.364;2023-11-21T01:57:34;1.80;;;1.40;;
12519;SDS011;6325;49.540;8.364;2023-11-21T02:00:03;1.33;;;1.23;;
12519;SDS011;6325;49.540;8.364;2023-11-21T02:02:41;1.30;;;1.20;;
12519;SDS011;6325;49.540;8.364;2023-11-21T02:05:09;1.42;;;1.10;;
12519;SDS011;6325;49.540;8.364;2023-11-21T02:07:37;1.30;;;1.20;;
12519;SDS011;6325;49.540;8.364;2023-11-21T02:10:05;1.20;;;1.20;;
12519;SDS011;6325;49.540;8.364;2023-11-21T02:12:32;1.02;;;1.02;;
12519;SDS011;6325;49.540;8.364;2023-11-21T02:15:00;0.90;;;0.90;;
12519;SDS011;6325;49.540;8.364;2023-11-21T02:17:27;0.90;;;0.90;;
12519;SDS011;6325;49.540;8.364;2023-11-21T02:19:55;1.05;;;0.95;;
12519;SDS011;6325;49.540;8.364;2023-11-21T02:22:21;0.93;;;0.93;;
12519;SDS011;6325;49.540;8.364;2023-11-21T02:24:52;0.87;;;0.87;;
12519;SDS011;6325;49.540;8.364;2023-11-21T02:27:19;1.02;;;0.93;;
12519;SDS011;6325;49.540;8.364;2023-11-21T02:29:48;1.20;;;1.10;;
12519;SDS011;6325;49.540;8.364;2023-11-21T02:32:15;1.20;;;1.10;;
12519;SDS011;6325;49.540;8.364;2023-11-21T02:34:44;1.08;;;1.08;;
12519;SDS011;6325;49.540;8.364;2023-11-21T02:37:10;1.20;;;1.10;;
12519;SDS011;6325;49.540;8.364;2023-11-21T02:39:37;0.93;;;0.90;;
12519;SDS011;6325;49.540;8.364;2023-11-21T02:42:06;1.15;;;1.05;;
12519;SDS011;6325;49.540;8.364;2023-11-21T02:44:33;1.15;;;1.05;;
12519;SDS011;6325;49.540;8.364;2023-11-21T02:46:59;1.10;;;1.10;;
12519;SDS011;6325;49.540;8.364;2023-11-21T02:49:26;0.98;;;0.98;;
12519;SDS011;6325;49.540;8.364;2023-11-21T02:51:53;1.20;;;1.10;;
12519;SDS011;6325;49.540;8.364;2023-11-21T02:54:20;1.20;;;1.10;;
12519;SDS011;6325;49.540;8.364;2023-11-21T02:56:47;1.20;;;1.10;;
12519;SDS011;6325;49.540;8.364;2023-11-21T02:59:16;1.05;;;1.00;;
12519;SDS011;6325;49.540;8.364;2023-11-21T03:01:44;1.25;;;1.15;;
12519;SDS011;6325;49.540;8.364;2023-11-21T03:04:11;1.30;;;1.20;;
12519;SDS011;6325;49.540;8.364;2023-11-21T03:06:43;1.20;;;1.10;;
12519;SDS011;6325;49.540;8.364;2023-11-21T03:09:10;1.20;;;1.15;;
12519;SDS011;6325;49.540;8.364;2023-11-21T03:11:37;1.40;;;1.30;;
12519;SDS011;6325;49.540;8.364;2023-11-21T03:14:04;1.13;;;1.02;;
12519;SDS011;6325;49.540;8.364;2023-11-21T03:16:32;0.93;;;0.93;;
12519;SDS011;6325;49.540;8.364;2023-11-21T03:18:59;1.00;;;1.00;;
12519;SDS011;6325;49.540;8.364;2023-11-21T03:21:26;1.43;;;1.23;;
12519;SDS011;6325;49.540;8.364;2023-11-21T03:23:54;1.00;;;1.00;;
12519;SDS011;6325;49.540;8.364;2023-11-21T03:26:20;1.03;;;1.00;;
12519;SDS011;6325;49.540;8.364;2023-11-21T03:28:46;1.10;;;1.10;;
12519;SDS011;6325;49.540;8.364;2023-11-21T03:31:13;1.20;;;1.10;;
12519;SDS011;6325;49.540;8.364;2023-11-21T03:33:43;1.03;;;1.03;;
12519;SDS011;6325;49.540;8.364;2023-11-21T03:36:10;1.30;;;1.20;;
12519;SDS011;6325;49.540;8.364;2023-11-21T03:38:37;1.20;;;1.10;;
12519;SDS011;6325;49.540;8.364;2023-11-21T03:41:04;1.35;;;1.25;;
12519;SDS011;6325;49.540;8.364;2023-11-21T03:43:32;1.10;;;1.00;;
12519;SDS011;6325;49.540;8.364;2023-11-21T03:45:59;0.90;;;0.90;;
12519;SDS011;6325;49.540;8.364;2023-11-21T03:48:25;1.30;;;1.20;;
12519;SDS011;6325;49.540;8.364;2023-11-21T03:50:53;1.02;;;1.02;;
12519;SDS011;6325;49.540;8.364;2023-11-21T03:53:20;1.08;;;1.02;;
12519;SDS011;6325;49.540;8.364;2023-11-21T03:55:47;0.90;;;0.90;;
12519;SDS011;6325;49.540;8.364;2023-11-21T03:58:14;1.27;;;1.17;;
12519;SDS011;6325;49.540;8.364;2023-11-21T04:00:41;1.27;;;1.17;;
12519;SDS011;6325;49.540;8.364;2023-11-21T04:03:07;1.60;;;1.40;;
12519;SDS011;6325;49.540;8.364;2023-11-21T04:05:34;1.30;;;1.20;;
12519;SDS011;6325;49.540;8.364;2023-11-21T04:08:02;1.67;;;1.20;;
12519;SDS011;6325;49.540;8.364;2023-11-21T04:10:30;1.48;;;1.30;;
12519;SDS011;6325;49.540;8.364;2023-11-21T04:12:56;1.30;;;1.20;;
12519;SDS011;6325;49.540;8.364;2023-11-21T04:15:27;1.20;;;1.20;;
12519;SDS011;6325;49.540;8.364;2023-11-21T04:17:53;1.30;;;1.20;;
12519;SDS011;6325;49.540;8.364;2023-11-21T04:20:21;1.30;;;1.20;;
12519;SDS011;6325;49.540;8.364;2023-11-21T04:22:48;1.20;;;1.10;;
12519;SDS011;6325;49.540;8.364;2023-11-21T04:25:16;1.30;;;1.20;;
12519;SDS011;6325;49.540;8.364;2023-11-21T04:27:44;1.40;;;1.30;;
12519;SDS011;6325;49.540;8.364;2023-11-21T04:30:11;2.00;;;1.52;;
12519;SDS011;6325;49.540;8.364;2023-11-21T04:32:39;2.13;;;1.45;;
12519;SDS011;6325;49.540;8.364;2023-11-21T04:35:07;2.40;;;1.50;;
12519;SDS011;6325;49.540;8.364;2023-11-21T04:37:34;2.57;;;1.90;;
12519;SDS011;6325;49.540;8.364;2023-11-21T04:40:01;3.40;;;2.70;;
12519;SDS011;6325;49.540;8.364;2023-11-21T04:42:33;3.60;;;2.75;;
12519;SDS011;6325;49.540;8.364;2023-11-21T04:45:00;4.60;;;3.25;;
12519;SDS011;6325;49.540;8.364;2023-11-21T04:47:30;7.35;;;4.35;;
12519;SDS011;6325;49.540;8.364;2023-11-21T04:49:56;6.35;;;4.15;;
12519;SDS011;6325;49.540;8.364;2023-11-21T04:52:23;6.97;;;4.00;;
12519;SDS011;6325;49.540;8.364;2023-11-21T04:54:50;6.88;;;4.20;;
12519;SDS011;6325;49.540;8.364;2023-11-21T04:57:19;8.50;;;4.67;;
12519;SDS011;6325;49.540;8.364;2023-11-21T04:59:48;6.63;;;4.00;;
12519;SDS011;6325;49.540;8.364;2023-11-21T05:02:15;7.00;;;4.00;;
12519;SDS011;6325;49.540;8.364;2023-11-21T05:04:44;6.30;;;3.47;;
12519;SDS011;6325;49.540;8.364;2023-11-21T05:07:11;2.95;;;2.22;;
12519;SDS011;6325;49.540;8.364;2023-11-21T05:09:40;1.80;;;1.70;;
12519;SDS011;6325;49.540;8.364;2023-11-21T05:12:09;1.60;;;1.50;;
12519;SDS011;6325;49.540;8.364;2023-11-21T05:14:36;1.67;;;1.58;;
12519;SDS011;6325;49.540;8.364;2023-11-21T05:17:08;1.30;;;1.30;;
12519;SDS011;6325;49.540;8.364;2023-11-21T05:19:34;1.40;;;1.30;;
12519;SDS011;6325;49.540;8.364;2023-11-21T05:22:01;1.60;;;1.50;;
12519;SDS011;6325;49.540;8.364;2023-11-21T05:24:29;1.50;;;1.40;;
12519;SDS011;6325;49.540;8.364;2023-11-21T05:26:55;1.20;;;1.20;;
12519;SDS011;6325;49.540;8.364;2023-11-21T05:29:22;1.40;;;1.30;;
12519;SDS011;6325;49.540;8.364;2023-11-21T05:31:50;1.60;;;1.50;;
12519;SDS011;6325;49.540;8.364;2023-11-21T05:34:19;1.58;;;1.45;;
12519;SDS011;6325;49.540;8.364;2023-11-21T05:36:48;1.67;;;1.58;;
12519;SDS011;6325;49.540;8.364;2023-11-21T05:39:15;1.83;;;1.73;;
12519;SDS011;6325;49.540;8.364;2023-11-21T05:41:43;1.90;;;1.80;;
12519;SDS011;6325;49.540;8.364;2023-11-21T05:44:10;2.40;;;2.20;;
12519;SDS011;6325;49.540;8.364;2023-11-21T05:46:39;2.83;;;2.00;;
12519;SDS011;6325;49.540;8.364;2023-11-21T05:49:07;2.28;;;2.08;;
12519;SDS011;6325;49.540;8.364;2023-11-21T05:51:35;2.40;;;2.20;;
12519;SDS011;6325;49.540;8.364;2023-11-21T05:54:02;2.15;;;2.05;;
12519;SDS011;6325;49.540;8.364;2023-11-21T05:56:29;2.30;;;2.20;;
12519;SDS011;6325;49.540;8.364;2023-11-21T05:58:56;2.08;;;1.98;;
12519;SDS011;6325;49.540;8.364;2023-11-21T06:01:23;2.20;;;2.10;;
12519;SDS011;6325;49.540;8.364;2023-11-21T06:03:53;2.78;;;2.58;;
12519;SDS011;6325;49.540;8.364;2023-11-21T06:06:19;2.70;;;2.50;;
12519;SDS011;6325;49.540;8.364;2023-11-21T06:08:48;3.10;;;2.90;;
12519;SDS011;6325;49.540;8.364;2023-11-21T06:11:15;2.72;;;2.63;;
12519;SDS011;6325;49.540;8.364;2023-11-21T06:13:42;3.17;;;2.97;;
12519;SDS011;6325;49.540;8.364;2023-11-21T06:16:09;2.80;;;2.70;;
12519;SDS011;6325;49.540;8.364;2023-11-21T06:18:38;2.90;;;2.70;;
12519;SDS011;6325;49.540;8.364;2023-11-21T06:21:05;3.70;;;3.40;;
12519;SDS011;6325;49.540;8.364;2023-11-21T06:23:35;3.28;;;3.08;;
12519;SDS011;6325;49.540;8.364;2023-11-21T06:26:04;3.10;;;2.90;;
12519;SDS011;6325;49.540;8.364;2023-11-21T06:28:31;3.30;;;3.10;;
12519;SDS011;6325;49.540;8.364;2023-11-21T06:31:01;3.30;;;3.10;;
12519;SDS011;6325;49.540;8.364;2023-11-21T06:33:30;4.00;;;3.70;;
12519;SDS011;6325;49.540;8.364;2023-11-21T06:35:56;4.20;;;4.00;;
12519;SDS011;6325;49.540;8.364;2023-11-21T06:38:24;5.10;;;4.70;;
12519;SDS011;6325;49.540;8.364;2023-11-21T06:40:53;4.75;;;4.45;;
12519;SDS011;6325;49.540;8.364;2023-11-21T06:43:22;5.20;;;4.80;;
12519;SDS011;6325;49.540;8.364;2023-11-21T06:45:48;5.13;;;4.72;;
12519;SDS011;6325;49.540;8.364;2023-11-21T06:48:15;4.68;;;4.38;;
12519;SDS011;6325;49.540;8.364;2023-11-21T06:50:42;5.40;;;5.00;;
12519;SDS011;6325;49.540;8.364;2023-11-21T06:53:09;5.10;;;4.70;;
12519;SDS011;6325;49.540;8.364;2023-11-21T06:55:36;4.85;;;4.55;;
12519;SDS011;6325;49.540;8.364;2023-11-21T06:58:03;4.82;;;4.47;;
12519;SDS011;6325;49.540;8.364;2023-11-21T07:00:31;5.00;;;4.68;;
12519;SDS011;6325;49.540;8.364;2023-11-21T07:02:58;5.63;;;5.22;;
12519;SDS011;6325;49.540;8.364;2023-11-21T07:05:25;5.38;;;4.97;;
12519;SDS011;6325;49.540;8.364;2023-11-21T07:07:52;5.60;;;5.20;;
12519;SDS011;6325;49.540;8.364;2023-11-21T07:10:19;6.10;;;5.60;;
12519;SDS011;6325;49.540;8.364;2023-11-21T07:12:46;5.60;;;5.10;;
12519;SDS011;6325;49.540;8.364;2023-11-21T07:15:12;5.77;;;5.37;;
12519;SDS011;6325;49.540;8.364;2023-11-21T07:17:40;5.53;;;5.13;;
12519;SDS011;6325;49.540;8.364;2023-11-21T07:20:06;5.57;;;5.18;;
12519;SDS011;6325;49.540;8.364;2023-11-21T07:22:34;6.03;;;5.53;;
12519;SDS011;6325;49.540;8.364;2023-11-21T07:25:01;6.00;;;5.50;;
12519;SDS011;6325;49.540;8.364;2023-11-21T07:27:27;6.05;;;5.55;;
12519;SDS011;6325;49.540;8.364;2023-11-21T07:29:54;6.22;;;5.72;;
12519;SDS011;6325;49.540;8.364;2023-11-21T07:32:21;5.57;;;5.18;;
12519;SDS011;6325;49.540;8.364;2023-11-21T07:34:49;5.55;;;5.15;;
12519;SDS011;6325;49.540;8.364;2023-11-21T07:37:16;5.82;;;5.43;;
12519;SDS011;6325;49.540;8.364;2023-11-21T07:39:42;5.47;;;5.07;;
12519;SDS011;6325;49.540;8.364;2023-11-21T07:42:09;5.53;;;5.13;;
12519;SDS011;6325;49.540;8.364;2023-11-21T07:44:36;6.33;;;5.83;;
12519;SDS011;6325;49.540;8.364;2023-11-21T07:47:03;5.40;;;5.00;;
12519;SDS011;6325;49.540;8.364;2023-11-21T07:49:30;5.20;;;4.80;;
12519;SDS011;6325;49.540;8.364;2023-11-21T07:51:58;6.05;;;5.55;;
12519;SDS011;6325;49.540;8.364;2023-11-21T07:54:25;5.15;;;4.75;;
12519;SDS011;6325;49.540;8.364;2023-11-21T07:56:51;5.32;;;4.93;;
12519;SDS011;6325;49.540;8.364;2023-11-21T07:59:18;5.10;;;4.70;;
12519;SDS011;6325;49.540;8.364;2023-11-21T08:01:45;4.70;;;4.40;;
12519;SDS011;6325;49.540;8.364;2023-11-21T08:04:11;4.60;;;4.30;;
12519;SDS011;6325;49.540;8.364;2023-11-21T08:06:38;3.80;;;3.50;;
12519;SDS011;6325;49.540;8.364;2023-11-21T08:09:07;3.85;;;3.55;;
12519;SDS011;6325;49.540;8.364;2023-11-21T08:11:35;3.22;;;3.03;;
12519;SDS011;6325;49.540;8.364;2023-11-21T08:14:04;3.40;;;3.20;;
12519;SDS011;6325;49.540;8.364;2023-11-21T08:16:31;3.90;;;3.60;;
12519;SDS011;6325;49.540;8.364;2023-11-21T08:18:57;4.45;;;4.15;;
12519;SDS011;6325;49.540;8.364;2023-11-21T08:21:24;4.30;;;4.00;;
12519;SDS011;6325;49.540;8.364;2023-11-21T08:23:54;4.20;;;3.90;;
12519;SDS011;6325;49.540;8.364;2023-11-21T08:26:22;4.57;;;4.20;;
12519;SDS011;6325;49.540;8.364;2023-11-21T08:28:49;3.50;;;3.30;;
12519;SDS011;6325;49.540;8.364;2023-11-21T08:31:17;4.00;;;3.70;;
12519;SDS011;6325;49.540;8.364;2023-11-21T08:33:49;3.60;;;3.30;;
12519;SDS011;6325;49.540;8.364;2023-11-21T08:36:16;3.60;;;3.40;;
12519;SDS011;6325;49.540;8.364;2023-11-21T08:38:43;3.10;;;2.90;;
12519;SDS011;6325;49.540;8.364;2023-11-21T08:41:09;3.28;;;3.08;;
12519;SDS011;6325;49.540;8.364;2023-11-21T08:43:38;2.70;;;2.60;;
12519;SDS011;6325;49.540;8.364;2023-11-21T08:46:05;3.55;;;3.28;;
12519;SDS011;6325;49.540;8.364;2023-11-21T08:48:33;3.00;;;2.80;;
12519;SDS011;6325;49.540;8.364;2023-11-21T08:51:01;2.60;;;2.50;;
12519;SDS011;6325;49.540;8.364;2023-11-21T08:53:28;2.50;;;2.40;;
12519;SDS011;6325;49.540;8.364;2023-11-21T08:55:56;2.90;;;2.70;;
12519;SDS011;6325;49.540;8.364;2023-11-21T08:58:22;3.40;;;3.20;;
12519;SDS011;6325;49.540;8.364;2023-11-21T09:00:50;5.10;;;4.70;;
12519;SDS011;6325;49.540;8.364;2023-11-21T09:03:17;5.63;;;5.22;;
12519;SDS011;6325;49.540;8.364;2023-11-21T09:05:44;5.75;;;5.32;;
12519;SDS011;6325;49.540;8.364;2023-11-21T09:08:11;6.03;;;5.53;;
12519;SDS011;6325;49.540;8.364;2023-11-21T09:10:38;6.55;;;6.05;;
12519;SDS011;6325;49.540;8.364;2023-11-21T09:13:05;6.72;;;6.20;;
12519;SDS011;6325;49.540;8.364;2023-11-21T09:15:34;6.93;;;6.32;;
12519;SDS011;6325;49.540;8.364;2023-11-21T09:18:02;6.07;;;5.57;;
12519;SDS011;6325;49.540;8.364;2023-11-21T09:20:30;5.80;;;5.37;;
12519;SDS011;6325;49.540;8.364;2023-11-21T09:22:56;6.50;;;5.90;;
12519;SDS011;6325;49.540;8.364;2023-11-21T09:25:23;6.63;;;6.03;;
12519;SDS011;6325;49.540;8.364;2023-11-21T09:27:50;5.88;;;5.38;;
12519;SDS011;6325;49.540;8.364;2023-11-21T09:30:17;6.40;;;5.88;;
12519;SDS011;6325;49.540;8.364;2023-11-21T09:32:45;5.43;;;5.03;;
12519;SDS011;6325;49.540;8.364;2023-11-21T09:35:13;6.10;;;5.60;;
12519;SDS011;6325;49.540;8.364;2023-11-21T09:37:41;5.93;;;5.43;;
12519;SDS011;6325;49.540;8.364;2023-11-21T09:40:09;6.88;;;6.28;;
12519;SDS011;6325;49.540;8.364;2023-11-21T09:42:39;6.53;;;5.93;;
12519;SDS011;6325;49.540;8.364;2023-11-21T09:45:10;5.90;;;5.40;;
12519;SDS011;6325;49.540;8.364;2023-11-21T09:47:40;6.65;;;6.05;;
12519;SDS011;6325;49.540;8.364;2023-11-21T09:50:09;5.20;;;4.80;;
12519;SDS011;6325;49.540;8.364;2023-11-21T09:52:39;5.53;;;5.07;;
12519;SDS011;6325;49.540;8.364;2023-11-21T09:55:15;6.00;;;5.50;;
12519;SDS011;6325;49.540;8.364;2023-11-21T09:57:46;5.38;;;4.97;;
12519;SDS011;6325;49.540;8.364;2023-11-21T10:00:15;6.03;;;5.53;;
12519;SDS011;6325;49.540;8.364;2023-11-21T10:02:45;5.40;;;5.00;;
12519;SDS011;6325;49.540;8.364;2023-11-21T10:05:13;5.22;;;4.82;;
12519;SDS011;6325;49.540;8.364;2023-11-21T10:07:43;5.75;;;5.20;;
12519;SDS011;6325;49.540;8.364;2023-11-21T10:10:11;5.03;;;4.63;;
12519;SDS011;6325;49.540;8.364;2023-11-21T10:12:44;4.65;;;4.35;;
12519;SDS011;6325;49.540;8.364;2023-11-21T10:15:18;4.50;;;4.10;;
12519;SDS011;6325;49.540;8.364;2023-11-21T10:17:48;4.40;;;4.10;;
12519;SDS011;6325;49.540;8.364;2023-11-21T10:20:15;4.15;;;3.85;;
12519;SDS011;6325;49.540;8.364;2023-11-21T10:22:44;3.80;;;3.55;;
12519;SDS011;6325;49.540;8.364;2023-11-21T10:25:10;3.70;;;3.50;;
12519;SDS011;6325;49.540;8.364;2023-11-21T10:27:39;3.50;;;3.20;;
12519;SDS011;6325;49.540;8.364;2023-11-21T10:30:08;3.70;;;3.40;;
12519;SDS011;6325;49.540;8.364;2023-11-21T10:32:37;3.47;;;3.25;;
12519;SDS011;6325;49.540;8.364;2023-11-21T10:35:05;3.70;;;3.40;;
12519;SDS011;6325;49.540;8.364;2023-11-21T10:37:35;3.28;;;3.08;;
12519;SDS011;6325;49.540;8.364;2023-11-21T10:40:06;3.55;;;3.25;;
12519;SDS011;6325;49.540;8.364;2023-11-21T10:42:36;3.35;;;3.15;;
12519;SDS011;6325;49.540;8.364;2023-11-21T10:45:04;3.47;;;3.28;;
12519;SDS011;6325;49.540;8.364;2023-11-21T10:47:37;3.50;;;3.30;;
12519;SDS011;6325;49.540;8.364;2023-11-21T10:50:05;3.90;;;3.60;;
12519;SDS011;6325;49.540;8.364;2023-11-21T10:52:35;4.00;;;3.63;;
12519;SDS011;6325;49.540;8.364;2023-11-21T10:55:07;3.60;;;3.40;;
12519;SDS011;6325;49.540;8.364;2023-11-21T10:57:43;3.47;;;3.28;;
12519;SDS011;6325;49.540;8.364;2023-11-21T11:00:14;3.55;;;3.28;;
12519;SDS011;6325;49.540;8.364;2023-11-21T11:02:44;3.42;;;3.22;;
12519;SDS011;6325;49.540;8.364;2023-11-21T11:05:14;3.20;;;3.00;;
12519;SDS011;6325;49.540;8.364;2023-11-21T11:07:44;3.55;;;3.28;;
12519;SDS011;6325;49.540;8.364;2023-11-21T11:10:15;3.42;;;3.22;;
12519;SDS011;6325;49.540;8.364;2023-11-21T11:12:42;3.90;;;3.60;;
12519;SDS011;6325;49.540;8.364;2023-11-21T11:15:13;3.60;;;3.30;;
12519;SDS011;6325;49.540;8.364;2023-11-21T11:17:41;3.88;;;3.50;;
12519;SDS011;6325;49.540;8.364;2023-11-21T11:20:10;3.20;;;3.00;;
12519;SDS011;6325;49.540;8.364;2023-11-21T11:22:42;2.90;;;2.70;;
12519;SDS011;6325;49.540;8.364;2023-11-21T11:25:21;3.20;;;3.00;;
12519;SDS011;6325;49.540;8.364;2023-11-21T11:27:57;3.00;;;2.80;;
12519;SDS011;6325;49.540;8.364;2023-11-21T11:30:33;2.85;;;2.67;;
12519;SDS011;6325;49.540;8.364;2023-11-21T11:33:14;3.35;;;3.05;;
12519;SDS011;6325;49.540;8.364;2023-11-21T11:35:52;2.83;;;2.63;;
12519;SDS011;6325;49.540;8.364;2023-11-21T11:38:23;3.00;;;2.80;;
12519;SDS011;6325;49.540;8.364;2023-11-21T11:40:54;2.60;;;2.40;;
12519;SDS011;6325;49.540;8.364;2023-11-21T11:43:27;2.75;;;2.55;;
12519;SDS011;6325;49.540;8.364;2023-11-21T11:45:56;2.72;;;2.53;;
12519;SDS011;6325;49.540;8.364;2023-11-21T11:48:24;2.60;;;2.40;;
12519;SDS011;6325;49.540;8.364;2023-11-21T11:51:01;2.08;;;1.98;;
12519;SDS011;6325;49.540;8.364;2023-11-21T11:53:33;2.10;;;2.00;;
12519;SDS011;6325;49.540;8.364;2023-11-21T11:58:55;2.00;;;1.90;;
12519;SDS011;6325;49.540;8.364;2023-11-21T12:01:24;2.50;;;2.30;;
12519;SDS011;6325;49.540;8.364;2023-11-21T12:04:23;3.47;;;2.63;;
12519;SDS011;6325;49.540;8.364;2023-11-21T12:06:56;2.50;;;2.30;;
12519;SDS011;6325;49.540;8.364;2023-11-21T12:09:27;2.10;;;2.00;;
12519;SDS011;6325;49.540;8.364;2023-11-21T12:11:56;2.40;;;2.20;;
12519;SDS011;6325;49.540;8.364;2023-11-21T12:14:23;1.70;;;1.60;;
12519;SDS011;6325;49.540;8.364;2023-11-21T12:16:50;1.70;;;1.60;;
12519;SDS011;6325;49.540;8.364;2023-11-21T12:19:18;2.25;;;1.92;;
12519;SDS011;6325;49.540;8.364;2023-11-21T12:21:46;1.60;;;1.50;;
12519;SDS011;6325;49.540;8.364;2023-11-21T12:24:13;1.63;;;1.52;;
12519;SDS011;6325;49.540;8.364;2023-11-21T12:26:41;1.65;;;1.55;;
12519;SDS011;6325;49.540;8.364;2023-11-21T12:29:10;1.70;;;1.60;;
12519;SDS011;6325;49.540;8.364;2023-11-21T12:31:37;1.45;;;1.40;;
12519;SDS011;6325;49.540;8.364;2023-11-21T12:34:04;1.70;;;1.60;;
12519;SDS011;6325;49.540;8.364;2023-11-21T12:36:31;2.15;;;1.60;;
12519;SDS011;6325;49.540;8.364;2023-11-21T12:38:59;1.80;;;1.70;;
12519;SDS011;6325;49.540;8.364;2023-11-21T12:41:27;1.98;;;1.75;;
12519;SDS011;6325;49.540;8.364;2023-11-21T12:43:55;2.00;;;1.90;;
12519;SDS011;6325;49.540;8.364;2023-11-21T12:46:23;2.20;;;2.00;;
12519;SDS011;6325;49.540;8.364;2023-11-21T12:48:54;2.20;;;1.70;;
12519;SDS011;6325;49.540;8.364;2023-11-21T12:51:21;1.70;;;1.58;;
12519;SDS011;6325;49.540;8.364;2023-11-21T12:53:48;1.77;;;1.67;;
12519;SDS011;6325;49.540;8.364;2023-11-21T12:56:16;1.70;;;1.60;;
12519;SDS011;6325;49.540;8.364;2023-11-21T12:58:43;1.80;;;1.70;;
12519;SDS011;6325;49.540;8.364;2023-11-21T13:01:12;1.80;;;1.70;;
12519;SDS011;6325;49.540;8.364;2023-11-21T13:03:47;3.05;;;2.10;;
12519;SDS011;6325;49.540;8.364;2023-11-21T13:06:16;1.80;;;1.70;;
12519;SDS011;6325;49.540;8.364;2023-11-21T13:08:44;2.13;;;1.92;;
12519;SDS011;6325;49.540;8.364;2023-11-21T13:11:11;2.58;;;1.80;;
12519;SDS011;6325;49.540;8.364;2023-11-21T13:13:40;1.90;;;1.77;;
12519;SDS011;6325;49.540;8.364;2023-11-21T13:16:08;1.70;;;1.60;;
12519;SDS011;6325;49.540;8.364;2023-11-21T13:18:35;2.27;;;1.60;;
12519;SDS011;6325;49.540;8.364;2023-11-21T13:21:04;2.13;;;1.65;;
12519;SDS011;6325;49.540;8.364;2023-11-21T13:23:36;1.70;;;1.60;;
12519;SDS011;6325;49.540;8.364;2023-11-21T13:26:03;1.65;;;1.50;;
12519;SDS011;6325;49.540;8.364;2023-11-21T13:28:31;1.73;;;1.63;;
12519;SDS011;6325;49.540;8.364;2023-11-21T13:30:59;1.88;;;1.63;;
12519;SDS011;6325;49.540;8.364;2023-11-21T13:33:29;2.17;;;1.85;;
12519;SDS011;6325;49.540;8.364;2023-11-21T13:35:58;1.70;;;1.60;;
12519;SDS011;6325;49.540;8.364;2023-11-21T13:38:28;2.17;;;1.80;;
12519;SDS011;6325;49.540;8.364;2023-11-21T13:40:58;1.67;;;1.50;;
12519;SDS011;6325;49.540;8.364;2023-11-21T13:43:25;1.77;;;1.67;;
12519;SDS011;6325;49.540;8.364;2023-11-21T13:45:53;1.90;;;1.65;;
12519;SDS011;6325;49.540;8.364;2023-11-21T13:48:25;2.28;;;1.90;;
12519;SDS011;6325;49.540;8.364;2023-11-21T13:50:57;2.10;;;1.83;;
12519;SDS011;6325;49.540;8.364;2023-11-21T13:53:32;3.70;;;2.00;;
12519;SDS011;6325;49.540;8.364;2023-11-21T13:56:01;2.78;;;2.20;;
12519;SDS011;6325;49.540;8.364;2023-11-21T13:58:28;2.10;;;1.90;;
12519;SDS011;6325;49.540;8.364;2023-11-21T14:01:10;2.33;;;2.10;;
12519;SDS011;6325;49.540;8.364;2023-11-21T14:03:57;2.30;;;2.15;;
12519;SDS011;6325;49.540;8.364;2023-11-21T14:06:33;2.15;;;2.00;;
12519;SDS011;6325;49.540;8.364;2023-11-21T14:09:08;2.47;;;2.22;;
12519;SDS011;6325;49.540;8.364;2023-11-21T14:11:38;2.30;;;2.10;;
12519;SDS011;6325;49.540;8.364;2023-11-21T14:14:05;2.22;;;2.00;;
12519;SDS011;6325;49.540;8.364;2023-11-21T14:16:32;2.53;;;2.33;;
12519;SDS011;6325;49.540;8.364;2023-11-21T14:18:59;2.15;;;2.03;;
12519;SDS011;6325;49.540;8.364;2023-11-21T14:21:38;2.58;;;2.20;;
12519;SDS011;6325;49.540;8.364;2023-11-21T14:24:09;2.13;;;2.00;;
12519;SDS011;6325;49.540;8.364;2023-11-21T14:26:38;2.50;;;2.30;;
12519;SDS011;6325;49.540;8.364;2023-11-21T14:29:06;1.90;;;1.80;;
12519;SDS011;6325;49.540;8.364;2023-11-21T14:31:33;2.90;;;2.58;;
12519;SDS011;6325;49.540;8.364;2023-11-21T14:34:00;2.75;;;2.53;;
12519;SDS011;6325;49.540;8.364;2023-11-21T14:36:28;2.67;;;2.50;;
12519;SDS011;6325;49.540;8.364;2023-11-21T14:38:55;2.77;;;2.50;;
12519;SDS011;6325;49.540;8.364;2023-11-21T14:41:23;2.53;;;2.30;;
12519;SDS011;6325;49.540;8.364;2023-11-21T14:43:53;2.15;;;2.05;;
12519;SDS011;6325;49.540;8.364;2023-11-21T14:46:20;2.42;;;2.22;;
12519;SDS011;6325;49.540;8.364;2023-11-21T14:48:47;3.50;;;2.50;;
12519;SDS011;6325;49.540;8.364;2023-11-21T14:51:23;2.67;;;2.47;;
12519;SDS011;6325;49.540;8.364;2023-11-21T14:53:57;2.38;;;2.17;;
12519;SDS011;6325;49.540;8.364;2023-11-21T14:56:32;2.53;;;2.28;;
12519;SDS011;6325;49.540;8.364;2023-11-21T14:58:59;2.30;;;2.10;;
12519;SDS011;6325;49.540;8.364;2023-11-21T15:01:41;2.08;;;1.98;;
12519;SDS011;6325;49.540;8.364;2023-11-21T15:04:18;2.25;;;2.05;;
12519;SDS011;6325;49.540;8.364;2023-11-21T15:06:56;2.70;;;2.17;;
12519;SDS011;6325;49.540;8.364;2023-11-21T15:09:23;2.03;;;1.93;;
12519;SDS011;6325;49.540;8.364;2023-11-21T15:12:02;2.40;;;2.20;;